Time;durP1;ratioP1;P1;durP2;ratioP2;P2;SDS_P1;SDS_P2;PMS_P1;PMS_P2;Temp;Humidity;BMP_temperature;BMP_pressure;BME280_temperature;BME280_humidity;BME280_pressure;Samples;Min_cycle;Max_cycle;Signal;HPM_P1;HPM_P2
2021/10/16 04:33:06;;;;;;;12.10;9.33;;;8.30;99.90;;;;;;4899242;26;21021;-75
2021/10/16 04:35:32;;;;;;;15.30;9.20;;;8.30;99.90;;;;;;4933247;29;20433;-75
2021/10/16 04:37:57;;;;;;;12.40;9.20;;;8.30;99.90;;;;;;4934118;29;20275;-75
2021/10/16 04:40:25;;;;;;;14.90;10.47;;;8.30;99.90;;;;;;4932910;29;20651;-75
2021/10/16 04:42:53;;;;;;;14.10;8.43;;;8.30;99.90;;;;;;4913416;29;20288;-74
2021/10/16 04:45:19;;;;;;;11.53;9.13;;;8.30;99.90;;;;;;4915091;29;20439;-76
2021/10/16 04:47:44;;;;;;;10.17;9.13;;;8.30;99.90;;;;;;4915122;29;20463;-75
2021/10/16 04:50:11;;;;;;;12.90;8.60;;;8.30;99.90;;;;;;4915381;29;20520;-75
2021/10/16 04:52:37;;;;;;;12.60;10.30;;;8.30;99.90;;;;;;4914804;29;20211;-76
2021/10/16 04:55:04;;;;;;;13.10;9.23;;;8.30;99.90;;;;;;4915141;29;20511;-75
2021/10/16 04:57:29;;;;;;;12.87;9.17;;;8.30;99.90;;;;;;4915065;29;20994;-75
2021/10/16 04:59:55;;;;;;;13.97;10.73;;;8.30;99.90;;;;;;4915071;29;20505;-76
2021/10/16 05:02:21;;;;;;;12.90;9.77;;;8.40;99.90;;;;;;4914306;29;20208;-76
2021/10/16 05:04:46;;;;;;;12.27;9.17;;;8.40;99.90;;;;;;4915015;29;20317;-76
2021/10/16 05:07:12;;;;;;;9.87;8.57;;;8.40;99.90;;;;;;4914821;29;20185;-76
2021/10/16 05:09:37;;;;;;;10.60;8.63;;;8.40;99.90;;;;;;4915531;29;20218;-76
2021/10/16 05:12:03;;;;;;;14.87;10.27;;;8.40;99.90;;;;;;4914924;29;20844;-76
2021/10/16 05:14:29;;;;;;;10.50;8.70;;;8.50;99.90;;;;;;4913323;29;20186;-76
2021/10/16 05:16:54;;;;;;;15.10;9.57;;;8.50;99.90;;;;;;4915000;29;20480;-76
2021/10/16 05:19:20;;;;;;;9.67;8.20;;;8.50;99.90;;;;;;4914824;29;20270;-76
2021/10/16 05:21:45;;;;;;;16.73;8.50;;;8.50;99.90;;;;;;4915003;29;20198;-76
2021/10/16 05:24:11;;;;;;;12.50;10.17;;;8.50;99.90;;;;;;4915506;29;20676;-76
2021/10/16 05:26:36;;;;;;;18.40;10.00;;;8.60;99.90;;;;;;4934374;29;20182;-76
2021/10/16 05:29:03;;;;;;;15.80;12.30;;;8.60;99.90;;;;;;4915446;29;20275;-76
2021/10/16 05:31:29;;;;;;;13.10;9.77;;;8.60;99.90;;;;;;4917429;29;20285;-76
2021/10/16 05:33:54;;;;;;;13.77;9.37;;;8.60;99.90;;;;;;4917596;29;20881;-76
2021/10/16 05:36:20;;;;;;;19.23;11.63;;;8.60;99.90;;;;;;4917628;29;20195;-76
2021/10/16 05:38:46;;;;;;;18.00;11.20;;;8.70;99.90;;;;;;4918133;29;20215;-76
2021/10/16 05:41:12;;;;;;;21.77;11.30;;;8.70;99.90;;;;;;4918067;29;21039;-76
2021/10/16 05:43:37;;;;;;;14.53;11.03;;;8.80;99.90;;;;;;4917781;29;20191;-73
2021/10/16 05:46:03;;;;;;;16.33;11.43;;;8.80;99.90;;;;;;4918248;29;20192;-73
2021/10/16 05:48:30;;;;;;;15.63;11.33;;;8.80;99.90;;;;;;4917730;29;20240;-73
2021/10/16 05:50:56;;;;;;;20.40;11.30;;;8.90;99.90;;;;;;4918003;29;20194;-73
2021/10/16 05:53:22;;;;;;;13.07;11.67;;;9.00;99.90;;;;;;4917502;29;21134;-73
2021/10/16 05:55:47;;;;;;;22.20;11.67;;;9.00;99.90;;;;;;4918077;29;20420;-73
2021/10/16 05:58:13;;;;;;;14.23;10.70;;;9.10;99.90;;;;;;4917696;29;20187;-73
2021/10/16 06:00:38;;;;;;;16.97;12.07;;;9.10;99.90;;;;;;4917637;29;20338;-73
2021/10/16 06:03:04;;;;;;;15.83;12.07;;;9.10;99.90;;;;;;4917769;29;20319;-72
2021/10/16 06:05:29;;;;;;;19.73;11.50;;;9.00;99.90;;;;;;4917894;29;20185;-73
2021/10/16 06:07:54;;;;;;;17.10;11.23;;;9.10;99.90;;;;;;4917791;29;20184;-73
2021/10/16 06:10:20;;;;;;;16.87;11.40;;;9.10;99.90;;;;;;4916558;29;20563;-72
2021/10/16 06:12:46;;;;;;;18.13;12.10;;;9.20;99.90;;;;;;4916988;29;20274;-71
2021/10/16 06:15:11;;;;;;;16.97;10.30;;;9.20;99.90;;;;;;4917462;29;20175;-72
2021/10/16 06:17:37;;;;;;;12.13;9.67;;;9.20;99.90;;;;;;4917231;29;20184;-73
2021/10/16 06:20:03;;;;;;;13.43;10.10;;;9.10;99.90;;;;;;4917403;29;20189;-72
2021/10/16 06:22:29;;;;;;;13.33;10.97;;;9.10;99.90;;;;;;4916786;29;20200;-71
2021/10/16 06:24:54;;;;;;;14.67;11.13;;;9.20;99.90;;;;;;4917335;29;20424;-72
2021/10/16 06:27:20;;;;;;;12.17;10.37;;;9.20;99.90;;;;;;4917452;29;20183;-71
2021/10/16 06:29:46;;;;;;;13.97;10.03;;;9.20;99.90;;;;;;4917747;29;20617;-75
2021/10/16 06:32:12;;;;;;;14.37;10.17;;;9.10;99.90;;;;;;4916938;29;20461;-74
2021/10/16 06:34:38;;;;;;;14.80;10.23;;;9.20;99.90;;;;;;4916729;29;20233;-75
2021/10/16 06:37:04;;;;;;;16.67;11.40;;;9.20;99.90;;;;;;4917103;29;20191;-74
2021/10/16 06:39:29;;;;;;;13.00;10.27;;;9.20;99.90;;;;;;4916818;29;20429;-76
2021/10/16 06:41:55;;;;;;;11.80;10.33;;;9.20;99.90;;;;;;4916995;29;20425;-75
2021/10/16 06:44:21;;;;;;;12.10;10.47;;;9.20;99.90;;;;;;4916762;29;20183;-75
2021/10/16 06:46:46;;;;;;;18.40;11.00;;;9.20;99.90;;;;;;4916723;29;20195;-76
2021/10/16 06:49:12;;;;;;;16.23;10.80;;;9.20;99.90;;;;;;4908403;29;20701;-74
2021/10/16 06:51:38;;;;;;;14.40;10.50;;;9.20;99.90;;;;;;4906494;29;20707;-74
2021/10/16 06:54:04;;;;;;;14.53;11.50;;;9.20;99.90;;;;;;4914187;29;20243;-76
2021/10/16 06:56:29;;;;;;;15.90;12.33;;;9.30;99.90;;;;;;4913330;29;20415;-74
2021/10/16 06:58:55;;;;;;;23.43;10.60;;;9.20;99.90;;;;;;4911328;29;20199;-76
2021/10/16 07:01:20;;;;;;;16.93;12.07;;;9.30;99.90;;;;;;4915636;29;20205;-75
2021/10/16 07:03:46;;;;;;;16.30;12.13;;;9.30;99.90;;;;;;4913062;29;20307;-76
2021/10/16 07:06:11;;;;;;;22.63;12.20;;;9.40;99.90;;;;;;4915341;29;20200;-75
2021/10/16 07:08:37;;;;;;;15.97;10.77;;;9.40;99.90;;;;;;4915632;29;20290;-74
2021/10/16 07:11:03;;;;;;;17.20;11.80;;;9.50;99.90;;;;;;4916113;29;20200;-76
2021/10/16 07:13:29;;;;;;;15.53;11.30;;;9.50;99.90;;;;;;4915672;29;20187;-75
2021/10/16 07:15:54;;;;;;;18.33;12.70;;;9.50;99.90;;;;;;4916358;29;20185;-75
2021/10/16 07:18:20;;;;;;;17.13;11.10;;;9.50;99.90;;;;;;4916430;29;20431;-75
2021/10/16 07:20:45;;;;;;;22.17;11.77;;;9.50;99.90;;;;;;4925356;29;20514;-75
2021/10/16 07:23:15;;;;;;;17.13;11.03;;;9.60;99.90;;;;;;4920886;29;20191;-74
2021/10/16 07:25:42;;;;;;;20.13;11.90;;;9.60;99.90;;;;;;4916196;29;20181;-76
2021/10/16 07:28:07;;;;;;;17.90;11.80;;;9.60;99.90;;;;;;4916211;29;20462;-75
2021/10/16 07:30:33;;;;;;;19.47;11.50;;;9.70;99.90;;;;;;4915953;29;20421;-75
2021/10/16 07:32:58;;;;;;;15.00;10.70;;;9.70;99.90;;;;;;4913108;29;20553;-77
2021/10/16 07:35:24;;;;;;;18.13;10.97;;;9.70;99.90;;;;;;4915386;29;20425;-75
2021/10/16 07:37:49;;;;;;;16.13;11.03;;;9.70;99.90;;;;;;4915359;29;20185;-74
2021/10/16 07:40:15;;;;;;;15.17;10.80;;;9.80;99.90;;;;;;4915478;29;20213;-75
2021/10/16 07:42:41;;;;;;;17.10;11.90;;;9.70;99.90;;;;;;4914644;29;20211;-75
2021/10/16 07:45:06;;;;;;;19.27;11.73;;;9.70;99.90;;;;;;4915773;29;20179;-75
2021/10/16 07:47:32;;;;;;;15.33;11.40;;;9.70;99.90;;;;;;4915573;29;20188;-73
2021/10/16 07:49:58;;;;;;;21.27;11.73;;;9.70;99.90;;;;;;4915528;29;20519;-74
2021/10/16 07:52:23;;;;;;;15.27;11.67;;;9.70;99.90;;;;;;4915032;29;20672;-73
2021/10/16 07:54:49;;;;;;;24.10;12.57;;;9.70;99.90;;;;;;4914088;29;20210;-75
2021/10/16 07:57:15;;;;;;;16.70;11.60;;;9.70;99.90;;;;;;4915595;29;20171;-76
2021/10/16 07:59:41;;;;;;;21.80;11.50;;;9.90;99.90;;;;;;4915214;29;20194;-75
2021/10/16 08:02:07;;;;;;;15.40;10.90;;;9.80;99.90;;;;;;4915530;29;20232;-75
2021/10/16 08:04:32;;;;;;;15.20;11.40;;;9.90;99.90;;;;;;4915030;29;20484;-75
2021/10/16 08:06:58;;;;;;;16.00;10.97;;;9.90;99.90;;;;;;4915190;29;20189;-76
2021/10/16 08:09:23;;;;;;;18.37;11.30;;;10.00;99.90;;;;;;4914863;29;20210;-75
2021/10/16 08:11:49;;;;;;;14.50;11.80;;;10.10;99.90;;;;;;4915023;29;20248;-74
2021/10/16 08:14:14;;;;;;;14.80;11.60;;;10.10;99.90;;;;;;4910989;29;20732;-74
2021/10/16 08:16:40;;;;;;;17.83;12.90;;;10.10;99.90;;;;;;4906160;29;21182;-76
2021/10/16 08:19:05;;;;;;;16.40;12.70;;;10.10;99.90;;;;;;4910052;29;20200;-75
2021/10/16 08:21:31;;;;;;;18.37;14.13;;;10.10;99.90;;;;;;4913764;29;20236;-75
2021/10/16 08:23:56;;;;;;;21.07;13.60;;;10.10;99.90;;;;;;4915195;29;20217;-75
2021/10/16 08:26:22;;;;;;;14.67;12.40;;;10.20;99.90;;;;;;4915363;29;20189;-75
2021/10/16 08:28:48;;;;;;;19.40;14.03;;;10.20;99.90;;;;;;4915133;29;20250;-75
2021/10/16 08:31:14;;;;;;;18.60;13.57;;;10.20;99.90;;;;;;4915602;29;20204;-74
2021/10/16 08:33:40;;;;;;;24.13;15.23;;;10.20;99.90;;;;;;4914805;29;20415;-75
2021/10/16 08:36:06;;;;;;;20.57;14.00;;;10.30;99.90;;;;;;4914602;29;20528;-74
2021/10/16 08:38:31;;;;;;;19.20;14.03;;;10.20;99.90;;;;;;4909259;29;20216;-74
2021/10/16 08:40:57;;;;;;;23.53;15.37;;;10.30;99.90;;;;;;4913848;29;20448;-75
2021/10/16 08:43:23;;;;;;;27.70;17.30;;;10.30;99.90;;;;;;4914548;29;20740;-75
2021/10/16 08:45:48;;;;;;;26.07;17.67;;;10.30;99.90;;;;;;4913183;29;20196;-74
2021/10/16 08:48:15;;;;;;;30.53;18.23;;;10.40;99.90;;;;;;4913648;29;20229;-74
2021/10/16 08:50:44;;;;;;;36.00;19.77;;;10.40;99.90;;;;;;4914104;29;20224;-74
2021/10/16 08:53:09;;;;;;;37.77;19.10;;;10.30;99.90;;;;;;4913519;29;20422;-76
2021/10/16 08:55:35;;;;;;;46.03;19.30;;;10.30;99.90;;;;;;4913022;29;20431;-74
2021/10/16 08:58:01;;;;;;;35.20;21.93;;;10.20;99.90;;;;;;4913161;29;20186;-74
2021/10/16 09:00:36;;;;;;;38.47;20.27;;;10.30;99.90;;;;;;4913792;29;20241;-75
2021/10/16 09:03:17;;;;;;;43.30;22.67;;;10.30;99.90;;;;;;4914778;29;20423;-75
2021/10/16 09:05:59;;;;;;;47.43;24.00;;;10.30;99.90;;;;;;4917869;29;20472;-74
2021/10/16 09:08:29;;;;;;;54.00;23.43;;;10.40;99.90;;;;;;4918432;29;20467;-75
2021/10/16 09:11:11;;;;;;;42.47;22.90;;;10.40;99.90;;;;;;4918572;29;20464;-74
2021/10/16 09:13:48;;;;;;;38.17;18.87;;;10.40;99.90;;;;;;4918061;29;20422;-75
2021/10/16 09:16:25;;;;;;;36.03;20.13;;;10.40;99.90;;;;;;4918551;29;20413;-75
2021/10/16 09:19:33;;;;;;;38.47;19.60;;;10.40;99.90;;;;;;4918349;29;20822;-75
2021/10/16 09:22:06;;;;;;;40.27;19.77;;;10.40;99.90;;;;;;4908321;29;20457;-76
2021/10/16 09:24:38;;;;;;;37.03;20.17;;;10.40;99.90;;;;;;4918105;29;20424;-75
2021/10/16 09:27:33;;;;;;;34.67;19.17;;;10.40;99.90;;;;;;4918350;29;20508;-75
2021/10/16 09:30:04;;;;;;;38.30;18.87;;;10.40;99.90;;;;;;4913408;29;20557;-75
2021/10/16 09:32:30;;;;;;;39.50;19.63;;;10.50;99.90;;;;;;4917752;29;20969;-74
2021/10/16 09:35:01;;;;;;;27.60;18.67;;;10.50;99.90;;;;;;4917933;29;20426;-74
2021/10/16 09:37:26;;;;;;;32.37;19.70;;;10.60;99.90;;;;;;4918074;29;20252;-75
2021/10/16 09:39:57;;;;;;;33.10;18.53;;;10.60;99.90;;;;;;4917915;29;20422;-75
2021/10/16 09:42:31;;;;;;;34.80;18.60;;;10.70;99.90;;;;;;4917860;29;20209;-74
2021/10/16 09:44:59;;;;;;;29.90;18.93;;;10.80;99.90;;;;;;4917907;29;20463;-75
2021/10/16 09:47:25;;;;;;;37.43;19.10;;;10.80;99.90;;;;;;4917959;29;20501;-75
2021/10/16 09:50:02;;;;;;;30.47;19.93;;;10.70;99.90;;;;;;4917806;29;20503;-75
2021/10/16 09:52:33;;;;;;;30.77;18.80;;;10.80;99.90;;;;;;4917505;29;20190;-75
2021/10/16 09:54:59;;;;;;;29.13;19.13;;;10.80;99.90;;;;;;4917697;29;20470;-75
2021/10/16 09:57:25;;;;;;;33.47;20.80;;;10.80;99.90;;;;;;4917671;29;20414;-75
2021/10/16 09:59:51;;;;;;;29.10;18.17;;;11.00;99.90;;;;;;4917538;29;20178;-75
2021/10/16 10:02:18;;;;;;;28.07;18.10;;;10.90;99.90;;;;;;4917650;29;20441;-75
2021/10/16 10:04:46;;;;;;;32.20;24.00;;;10.90;99.90;;;;;;4917322;29;20445;-75
2021/10/16 10:07:13;;;;;;;33.00;20.77;;;10.90;99.90;;;;;;4917618;29;20424;-75
2021/10/16 10:09:41;;;;;;;32.63;18.90;;;11.00;99.90;;;;;;4916041;29;21010;-75
2021/10/16 10:12:10;;;;;;;30.47;18.57;;;11.20;99.90;;;;;;4917416;29;20438;-75
2021/10/16 10:14:43;;;;;;;30.77;20.23;;;11.30;99.90;;;;;;4917240;29;20425;-75
2021/10/16 10:17:11;;;;;;;27.60;18.43;;;11.40;99.90;;;;;;4916998;29;20422;-74
2021/10/16 10:19:52;;;;;;;35.23;21.20;;;11.50;99.90;;;;;;4917212;29;20426;-74
2021/10/16 10:22:19;;;;;;;29.30;19.93;;;11.60;99.90;;;;;;4917235;29;20950;-75
2021/10/16 10:24:49;;;;;;;31.23;18.73;;;11.50;99.90;;;;;;4916931;29;20429;-75
2021/10/16 10:27:17;;;;;;;25.17;19.00;;;11.60;99.90;;;;;;4917373;29;20830;-75
2021/10/16 10:29:49;;;;;;;26.10;18.60;;;11.70;99.90;;;;;;4916869;29;20469;-74
2021/10/16 10:32:22;;;;;;;28.70;18.50;;;11.90;99.90;;;;;;4917051;29;20458;-75
2021/10/16 10:35:08;;;;;;;24.13;17.57;;;12.00;99.90;;;;;;4916590;29;20421;-74
2021/10/16 10:37:39;;;;;;;23.97;17.43;;;12.10;99.90;;;;;;4910471;29;20434;-74
2021/10/16 10:40:14;;;;;;;27.33;19.70;;;12.20;99.90;;;;;;4915855;29;20430;-74
2021/10/16 10:42:42;;;;;;;21.83;18.77;;;12.30;99.90;;;;;;4916631;29;20248;-73
2021/10/16 10:45:22;;;;;;;21.00;16.67;;;12.20;99.90;;;;;;4916888;29;20429;-74
2021/10/16 10:48:07;;;;;;;28.90;17.47;;;12.30;99.90;;;;;;4916768;29;20462;-74
2021/10/16 10:50:44;;;;;;;24.90;17.13;;;12.50;99.90;;;;;;4913203;29;20472;-75
2021/10/16 10:53:12;;;;;;;22.20;17.03;;;12.60;99.90;;;;;;4915994;29;20414;-76
2021/10/16 10:56:07;;;;;;;24.67;17.03;;;12.60;99.90;;;;;;4913528;29;20418;-75
2021/10/16 10:58:52;;;;;;;25.30;18.13;;;12.60;99.90;;;;;;4912302;29;20842;-74
2021/10/16 11:01:42;;;;;;;27.33;18.07;;;12.60;99.90;;;;;;4915039;29;20503;-74
2021/10/16 11:04:08;;;;;;;21.83;17.00;;;12.60;99.90;;;;;;4915933;29;20480;-74
2021/10/16 11:06:34;;;;;;;23.47;17.80;;;12.80;99.90;;;;;;4913174;29;20418;-75
2021/10/16 11:09:16;;;;;;;25.97;19.33;;;12.90;99.90;;;;;;4916130;29;20481;-74
2021/10/16 11:11:49;;;;;;;24.13;18.13;;;12.90;99.90;;;;;;4916166;29;20440;-74
2021/10/16 11:14:15;;;;;;;25.97;19.20;;;12.90;99.90;;;;;;4916092;29;20494;-74
2021/10/16 11:17:01;;;;;;;27.40;19.63;;;13.10;99.90;;;;;;4916178;29;20458;-75
2021/10/16 11:19:27;;;;;;;24.80;18.37;;;13.40;99.90;;;;;;4916275;29;20189;-74
2021/10/16 11:21:58;;;;;;;28.43;18.90;;;13.50;99.90;;;;;;4916167;29;20601;-75
2021/10/16 11:24:26;;;;;;;25.77;18.23;;;13.90;99.90;;;;;;4916074;29;20418;-75
2021/10/16 11:26:54;;;;;;;23.50;18.47;;;14.00;99.90;;;;;;4916147;29;20433;-75
2021/10/16 11:29:39;;;;;;;23.97;17.60;;;14.30;99.90;;;;;;4915125;29;20499;-75
2021/10/16 11:32:11;;;;;;;22.83;17.30;;;14.10;99.90;;;;;;4915934;29;20975;-74
2021/10/16 11:34:36;;;;;;;25.37;18.50;;;14.20;99.90;;;;;;4915672;29;20424;-75
2021/10/16 11:37:02;;;;;;;22.53;17.50;;;14.50;99.90;;;;;;4914600;29;20418;-75
2021/10/16 11:39:29;;;;;;;24.70;18.73;;;14.80;99.90;;;;;;4915674;29;20302;-74
2021/10/16 11:41:56;;;;;;;23.03;16.97;;;14.80;99.90;;;;;;4915960;29;20971;-76
2021/10/16 11:44:21;;;;;;;23.60;17.50;;;15.10;99.90;;;;;;4915246;29;20769;-74
2021/10/16 11:47:01;;;;;;;22.90;17.03;;;15.40;99.90;;;;;;4915610;29;20425;-75
2021/10/16 11:49:29;;;;;;;22.10;14.80;;;15.50;99.90;;;;;;4915568;29;20213;-74
2021/10/16 11:51:54;;;;;;;20.20;15.03;;;15.50;99.90;;;;;;4913980;29;20438;-74
2021/10/16 11:54:20;;;;;;;20.00;15.77;;;15.20;99.90;;;;;;4915386;29;20436;-74
2021/10/16 11:56:56;;;;;;;18.53;14.67;;;15.40;99.90;;;;;;4915524;29;20220;-74
2021/10/16 11:59:22;;;;;;;21.63;15.03;;;15.40;99.90;;;;;;4915064;29;20195;-75
2021/10/16 12:01:47;;;;;;;25.97;16.17;;;15.40;99.90;;;;;;4915493;29;20458;-74
2021/10/16 12:04:14;;;;;;;23.20;17.33;;;15.30;99.90;;;;;;4915186;29;20206;-74
2021/10/16 12:06:41;;;;;;;21.53;16.67;;;14.90;99.90;;;;;;4915527;29;20193;-75
2021/10/16 12:09:12;;;;;;;22.97;15.73;;;15.00;99.90;;;;;;4906891;29;20481;-75
2021/10/16 12:11:38;;;;;;;26.60;17.00;;;15.10;99.90;;;;;;4909037;29;20441;-75
2021/10/16 12:14:10;;;;;;;22.30;15.97;;;15.30;99.90;;;;;;4912449;29;20429;-75
2021/10/16 12:16:39;;;;;;;22.53;17.87;;;15.40;99.90;;;;;;4915389;29;20422;-75
2021/10/16 12:19:13;;;;;;;25.67;17.50;;;15.20;99.90;;;;;;4914250;29;20414;-74
2021/10/16 12:21:48;;;;;;;21.73;16.60;;;15.20;99.90;;;;;;4909770;29;20454;-74
2021/10/16 12:24:16;;;;;;;21.07;15.93;;;15.20;99.90;;;;;;4896110;29;20438;-75
2021/10/16 12:26:45;;;;;;;18.17;15.47;;;15.20;99.90;;;;;;4905491;29;20426;-75
2021/10/16 12:29:25;;;;;;;24.20;17.37;;;15.00;99.90;;;;;;4915017;29;20483;-75
2021/10/16 12:31:54;;;;;;;22.57;16.30;;;15.00;99.90;;;;;;4915068;29;20466;-75
2021/10/16 12:34:21;;;;;;;23.50;16.07;;;15.00;99.90;;;;;;4914945;29;20418;-75
2021/10/16 12:36:55;;;;;;;20.53;16.77;;;14.80;99.90;;;;;;4915098;29;20429;-75
2021/10/16 12:39:41;;;;;;;20.13;14.93;;;14.60;99.90;;;;;;4916286;29;20461;-74
2021/10/16 12:42:25;;;;;;;20.67;15.57;;;14.40;99.90;;;;;;4918905;29;20481;-75
2021/10/16 12:44:53;;;;;;;18.07;15.00;;;14.30;99.90;;;;;;4917297;29;20430;-75
2021/10/16 12:47:29;;;;;;;21.67;15.20;;;14.10;99.90;;;;;;4917750;29;20428;-74
2021/10/16 12:49:59;;;;;;;18.23;15.10;;;14.30;99.90;;;;;;4918778;29;20473;-75
2021/10/16 12:52:28;;;;;;;18.73;14.27;;;14.40;99.90;;;;;;4918619;29;20448;-75
2021/10/16 12:54:57;;;;;;;18.57;14.80;;;14.50;99.90;;;;;;4918670;29;20410;-75
2021/10/16 12:57:23;;;;;;;20.50;16.07;;;14.60;99.90;;;;;;4918476;29;20418;-75
2021/10/16 12:59:49;;;;;;;20.10;13.80;;;14.60;99.90;;;;;;4918785;29;20578;-75
2021/10/16 13:02:17;;;;;;;15.40;13.90;;;14.50;99.90;;;;;;4918816;29;20500;-75
2021/10/16 13:04:47;;;;;;;23.03;13.50;;;14.60;99.90;;;;;;4917125;29;20437;-75
2021/10/16 13:07:13;;;;;;;14.37;12.87;;;14.70;99.90;;;;;;4918580;29;20454;-74
2021/10/16 13:09:39;;;;;;;18.88;15.30;;;14.70;99.90;;;;;;4917001;29;20609;-75
2021/10/16 13:12:05;;;;;;;19.03;14.70;;;14.80;99.90;;;;;;4918389;29;20796;-75
2021/10/16 13:14:31;;;;;;;13.13;11.70;;;14.90;99.90;;;;;;4917925;29;20499;-75
2021/10/16 13:16:56;;;;;;;11.47;10.20;;;14.90;99.90;;;;;;4918308;29;20189;-75
2021/10/16 13:19:22;;;;;;;12.83;10.87;;;14.90;99.90;;;;;;4916896;29;20178;-75
2021/10/16 13:21:47;;;;;;;16.93;11.40;;;14.90;99.90;;;;;;4917514;29;20218;-76
2021/10/16 13:24:13;;;;;;;15.43;10.90;;;15.00;99.90;;;;;;4917896;29;20251;-74
2021/10/16 13:26:39;;;;;;;12.27;9.10;;;15.10;99.90;;;;;;4916023;29;20242;-75
2021/10/16 13:29:04;;;;;;;15.30;11.13;;;15.30;99.90;;;;;;4918567;29;20707;-75
2021/10/16 13:31:31;;;;;;;15.13;11.60;;;15.30;99.90;;;;;;4917952;29;20757;-75
2021/10/16 13:33:56;;;;;;;11.93;9.93;;;15.30;99.90;;;;;;4917906;29;20182;-74
2021/10/16 13:36:22;;;;;;;13.13;11.73;;;15.30;99.90;;;;;;4917324;29;20414;-75
2021/10/16 13:38:48;;;;;;;12.83;9.53;;;15.20;99.90;;;;;;4901450;29;20190;-75
2021/10/16 13:41:13;;;;;;;15.77;11.77;;;15.10;99.90;;;;;;4899077;29;20209;-75
2021/10/16 13:43:39;;;;;;;14.97;13.10;;;15.10;99.90;;;;;;4898705;29;20653;-75
2021/10/16 13:46:05;;;;;;;18.15;13.82;;;15.10;99.90;;;;;;4896958;29;20428;-74
2021/10/16 13:48:30;;;;;;;15.70;14.00;;;15.10;99.90;;;;;;4897320;29;20641;-74
2021/10/16 13:50:56;;;;;;;16.40;13.27;;;15.10;99.90;;;;;;4897966;29;20551;-75
2021/10/16 13:53:21;;;;;;;16.60;12.30;;;15.00;99.90;;;;;;4898666;29;20230;-75
2021/10/16 13:55:47;;;;;;;17.20;12.90;;;15.00;99.90;;;;;;4898801;29;20244;-75
2021/10/16 13:58:12;;;;;;;15.70;14.00;;;15.00;99.90;;;;;;4898520;29;20192;-75
2021/10/16 14:00:38;;;;;;;17.07;13.17;;;14.90;99.90;;;;;;4917145;29;20178;-75
2021/10/16 14:03:03;;;;;;;19.27;12.93;;;15.00;99.90;;;;;;4917433;29;20256;-75
2021/10/16 14:05:29;;;;;;;17.13;12.93;;;15.00;99.90;;;;;;4917588;29;20182;-75
2021/10/16 14:07:54;;;;;;;16.90;13.30;;;14.90;99.90;;;;;;4917409;29;20257;-75
2021/10/16 14:10:20;;;;;;;18.27;13.60;;;14.80;99.90;;;;;;4915932;29;20214;-75
2021/10/16 14:12:45;;;;;;;15.90;12.67;;;14.80;99.90;;;;;;4917110;29;20190;-75
2021/10/16 14:15:11;;;;;;;15.60;12.97;;;14.70;99.90;;;;;;4917395;29;20708;-75
2021/10/16 14:17:36;;;;;;;18.07;12.90;;;14.60;99.90;;;;;;4917332;29;20201;-75
2021/10/16 14:20:03;;;;;;;14.87;12.47;;;14.60;99.90;;;;;;4917190;29;20640;-75
2021/10/16 14:22:28;;;;;;;14.60;11.70;;;14.50;99.90;;;;;;4917042;29;20206;-75
2021/10/16 14:24:54;;;;;;;21.07;14.50;;;14.40;99.90;;;;;;4916960;29;20424;-75
2021/10/16 14:27:22;;;;;;;17.33;12.13;;;14.30;99.90;;;;;;4917409;29;20265;-75
2021/10/16 14:29:50;;;;;;;17.60;12.27;;;14.40;99.90;;;;;;4916940;29;20695;-75
2021/10/16 14:32:16;;;;;;;14.40;12.70;;;14.20;99.90;;;;;;4917066;29;20865;-75
2021/10/16 14:34:42;;;;;;;14.83;13.23;;;14.20;99.90;;;;;;4916692;29;20908;-75
2021/10/16 14:37:07;;;;;;;16.13;13.00;;;14.20;99.90;;;;;;4917119;29;20465;-75
2021/10/16 14:39:33;;;;;;;15.00;13.13;;;14.20;99.90;;;;;;4916577;29;20513;-75
2021/10/16 14:41:58;;;;;;;17.47;12.77;;;14.20;99.90;;;;;;4916659;29;20416;-75
2021/10/16 14:44:24;;;;;;;17.30;13.63;;;14.20;99.90;;;;;;4916572;29;20214;-75
2021/10/16 14:46:49;;;;;;;15.83;12.20;;;14.10;99.90;;;;;;4916861;29;20213;-75
2021/10/16 14:49:18;;;;;;;16.00;12.57;;;14.10;99.90;;;;;;4916670;29;20220;-75
2021/10/16 14:51:44;;;;;;;14.43;11.23;;;14.00;99.90;;;;;;4916645;29;20201;-75
2021/10/16 14:54:10;;;;;;;14.87;12.70;;;13.90;99.90;;;;;;4916386;29;20537;-75
2021/10/16 14:56:36;;;;;;;13.30;11.73;;;14.00;99.90;;;;;;4916475;29;20509;-75
2021/10/16 14:59:02;;;;;;;16.70;12.37;;;13.90;99.90;;;;;;4916655;29;20178;-75
2021/10/16 15:01:27;;;;;;;16.40;12.47;;;13.90;99.90;;;;;;4916490;29;20197;-75
2021/10/16 15:03:53;;;;;;;14.50;12.20;;;13.90;99.90;;;;;;4916083;29;20640;-75
2021/10/16 15:06:19;;;;;;;16.07;12.30;;;13.90;99.90;;;;;;4916424;29;20206;-75
2021/10/16 15:08:44;;;;;;;14.80;11.77;;;13.90;99.90;;;;;;4916161;29;20205;-75
2021/10/16 15:11:10;;;;;;;15.40;12.10;;;13.80;99.90;;;;;;4916381;29;20444;-75
2021/10/16 15:13:36;;;;;;;17.83;13.10;;;13.90;99.90;;;;;;4916002;29;20174;-75
2021/10/16 15:16:03;;;;;;;15.93;12.57;;;13.90;99.90;;;;;;4916356;29;20414;-75
2021/10/16 15:18:28;;;;;;;15.73;11.50;;;13.80;99.90;;;;;;4916175;29;20505;-75
2021/10/16 15:20:54;;;;;;;16.40;12.97;;;13.80;99.90;;;;;;4916174;29;20588;-75
2021/10/16 15:23:20;;;;;;;19.10;13.93;;;13.80;99.90;;;;;;4915817;29;20269;-75
2021/10/16 15:25:45;;;;;;;17.80;14.80;;;13.70;99.90;;;;;;4916086;29;20201;-75
2021/10/16 15:28:11;;;;;;;14.93;11.63;;;13.70;99.90;;;;;;4915860;29;20174;-75
2021/10/16 15:30:37;;;;;;;14.90;11.90;;;13.60;99.90;;;;;;4916016;29;20177;-75
2021/10/16 15:33:02;;;;;;;18.83;13.10;;;13.60;99.90;;;;;;4915779;29;20656;-75
2021/10/16 15:35:28;;;;;;;17.67;12.43;;;13.50;99.90;;;;;;4916001;29;20178;-75
2021/10/16 15:37:54;;;;;;;17.03;13.77;;;13.50;99.90;;;;;;4915877;29;20174;-75
2021/10/16 15:40:20;;;;;;;18.30;11.90;;;13.50;99.90;;;;;;4915774;29;20186;-75
2021/10/16 15:42:45;;;;;;;15.70;12.80;;;13.40;99.90;;;;;;4915539;29;20244;-75
2021/10/16 15:45:12;;;;;;;17.07;11.10;;;13.40;99.90;;;;;;4915704;29;20181;-74
2021/10/16 15:47:38;;;;;;;18.37;13.57;;;13.30;99.90;;;;;;4915718;29;20213;-74
2021/10/16 15:50:06;;;;;;;15.53;11.00;;;13.30;99.90;;;;;;4915163;29;20500;-74
2021/10/16 15:52:32;;;;;;;15.67;13.07;;;13.30;99.90;;;;;;4915461;29;20197;-75
2021/10/16 15:54:58;;;;;;;13.30;10.90;;;13.20;99.90;;;;;;4915275;29;20500;-75
2021/10/16 15:57:23;;;;;;;20.53;12.83;;;13.10;99.90;;;;;;4914426;29;20502;-75
2021/10/16 15:59:49;;;;;;;18.33;12.60;;;13.10;99.90;;;;;;4915327;29;20189;-75
2021/10/16 16:02:17;;;;;;;18.40;13.80;;;13.00;99.90;;;;;;4915467;29;20210;-75
2021/10/16 16:04:42;;;;;;;16.87;13.53;;;13.00;99.90;;;;;;4915326;29;20659;-76
2021/10/16 16:07:08;;;;;;;21.70;15.33;;;12.90;99.90;;;;;;4915403;29;20418;-75
2021/10/16 16:09:33;;;;;;;19.70;15.50;;;12.80;99.90;;;;;;4915112;29;20203;-75
2021/10/16 16:11:59;;;;;;;21.03;16.17;;;12.70;99.90;;;;;;4915369;29;20216;-75
2021/10/16 16:14:24;;;;;;;20.73;16.73;;;12.60;99.90;;;;;;4914684;29;20539;-75
2021/10/16 16:16:50;;;;;;;21.43;16.93;;;12.50;99.90;;;;;;4915354;29;20190;-75
2021/10/16 16:19:16;;;;;;;21.70;17.23;;;12.40;99.90;;;;;;4915300;29;20174;-75
2021/10/16 16:21:41;;;;;;;20.13;13.27;;;12.20;99.90;;;;;;4915145;29;20214;-75
2021/10/16 16:24:07;;;;;;;16.47;11.13;;;12.10;99.90;;;;;;4914849;29;20261;-75
2021/10/16 16:26:32;;;;;;;16.00;11.17;;;11.90;99.90;;;;;;4915174;29;20253;-75
2021/10/16 16:28:58;;;;;;;14.00;10.23;;;11.80;99.90;;;;;;4915154;29;20710;-75
2021/10/16 16:31:24;;;;;;;10.63;9.33;;;11.60;99.90;;;;;;4915133;29;20537;-74
2021/10/16 16:33:49;;;;;;;12.33;10.50;;;11.50;99.90;;;;;;4915000;29;20202;-75
2021/10/16 16:36:15;;;;;;;22.90;10.60;;;11.30;99.90;;;;;;4906799;29;20691;-74
2021/10/16 16:38:41;;;;;;;13.90;9.80;;;11.20;99.90;;;;;;4904330;29;20234;-76
2021/10/16 16:41:06;;;;;;;16.00;10.37;;;11.10;99.90;;;;;;4896164;29;20262;-75
2021/10/16 16:43:32;;;;;;;16.50;12.77;;;10.90;99.90;;;;;;4895682;29;20502;-75
2021/10/16 16:45:58;;;;;;;18.07;14.20;;;10.80;99.90;;;;;;4896140;29;20783;-74
2021/10/16 16:48:24;;;;;;;13.67;10.60;;;10.70;99.90;;;;;;4896058;29;20701;-77
2021/10/16 16:50:50;;;;;;;16.60;12.13;;;10.60;99.90;;;;;;4895770;29;20186;-76
2021/10/16 16:53:15;;;;;;;16.57;12.20;;;10.50;99.90;;;;;;4906874;29;20444;-76
2021/10/16 16:55:42;;;;;;;20.83;15.97;;;10.40;99.90;;;;;;4913638;29;20655;-76
2021/10/16 16:58:08;;;;;;;21.13;13.70;;;10.30;99.90;;;;;;4914955;29;20232;-76
2021/10/16 17:00:33;;;;;;;19.00;14.00;;;10.30;99.90;;;;;;4914314;29;20414;-74
2021/10/16 17:02:59;;;;;;;26.73;15.20;;;10.10;99.90;;;;;;4914723;29;20674;-76
2021/10/16 17:05:25;;;;;;;16.07;12.40;;;10.00;99.90;;;;;;4908261;29;20751;-76